sensor_id;sensor_type;location;lat;lon;timestamp;temperature;humidity
50013;DHT22;35901;48.694;9.476;2023-02-24T00:01:18;7.00;99.90
50013;DHT22;35901;48.694;9.476;2023-02-24T00:03:53;7.10;99.90
50013;DHT22;35901;48.694;9.476;2023-02-24T00:06:22;7.10;99.90
50013;DHT22;35901;48.694;9.476;2023-02-24T00:08:47;7.10;99.90
50013;DHT22;35901;48.694;9.476;2023-02-24T00:11:15;7.20;99.90
50013;DHT22;35901;48.694;9.476;2023-02-24T00:13:44;7.20;99.90
50013;DHT22;35901;48.694;9.476;2023-02-24T00:16:17;7.20;99.90
50013;DHT22;35901;48.694;9.476;2023-02-24T00:18:44;7.30;99.90
50013;DHT22;35901;48.694;9.476;2023-02-24T00:21:16;7.30;99.90
50013;DHT22;35901;48.694;9.476;2023-02-24T00:23:43;7.30;99.90
50013;DHT22;35901;48.694;9.476;2023-02-24T00:26:14;7.30;99.90
50013;DHT22;35901;48.694;9.476;2023-02-24T00:28:41;7.30;99.90
50013;DHT22;35901;48.694;9.476;2023-02-24T00:31:09;7.20;99.90
50013;DHT22;35901;48.694;9.476;2023-02-24T00:33:36;7.10;99.90
50013;DHT22;35901;48.694;9.476;2023-02-24T00:36:05;7.10;99.90
50013;DHT22;35901;48.694;9.476;2023-02-24T00:38:31;7.00;99.90
50013;DHT22;35901;48.694;9.476;2023-02-24T00:41:06;6.80;99.90
50013;DHT22;35901;48.694;9.476;2023-02-24T00:43:32;6.80;99.90
50013;DHT22;35901;48.694;9.476;2023-02-24T00:46:02;6.70;99.90
50013;DHT22;35901;48.694;9.476;2023-02-24T00:48:39;6.70;99.90
50013;DHT22;35901;48.694;9.476;2023-02-24T00:51:11;6.80;99.90
50013;DHT22;35901;48.694;9.476;2023-02-24T00:53:38;6.90;99.90
50013;DHT22;35901;48.694;9.476;2023-02-24T00:56:07;7.00;99.90
50013;DHT22;35901;48.694;9.476;2023-02-24T00:58:39;7.10;99.90
50013;DHT22;35901;48.694;9.476;2023-02-24T01:01:11;7.20;99.90
50013;DHT22;35901;48.694;9.476;2023-02-24T01:03:39;7.20;99.90
50013;DHT22;35901;48.694;9.476;2023-02-24T01:06:05;7.30;99.90
50013;DHT22;35901;48.694;9.476;2023-02-24T01:08:31;7.30;99.90
50013;DHT22;35901;48.694;9.476;2023-02-24T01:11:02;7.30;99.90
50013;DHT22;35901;48.694;9.476;2023-02-24T01:13:46;7.40;99.90
50013;DHT22;35901;48.694;9.476;2023-02-24T01:16:12;7.40;99.90
50013;DHT22;35901;48.694;9.476;2023-02-24T01:18:47;7.40;99.90
50013;DHT22;35901;48.694;9.476;2023-02-24T01:21:17;7.40;99.90
50013;DHT22;35901;48.694;9.476;2023-02-24T01:23:53;7.40;99.90
50013;DHT22;35901;48.694;9.476;2023-02-24T01:26:19;7.40;99.90
50013;DHT22;35901;48.694;9.476;2023-02-24T01:28:45;7.40;99.90
50013;DHT22;35901;48.694;9.476;2023-02-24T01:31:11;7.40;99.90
50013;DHT22;35901;48.694;9.476;2023-02-24T01:33:38;7.40;99.90
50013;DHT22;35901;48.694;9.476;2023-02-24T01:36:14;7.40;99.90
50013;DHT22;35901;48.694;9.476;2023-02-24T01:38:40;7.40;99.90
50013;DHT22;35901;48.694;9.476;2023-02-24T01:41:08;7.40;99.90
50013;DHT22;35901;48.694;9.476;2023-02-24T01:44:04;7.40;99.90
50013;DHT22;35901;48.694;9.476;2023-02-24T01:46:39;7.40;99.90
50013;DHT22;35901;48.694;9.476;2023-02-24T01:49:13;7.40;99.90
50013;DHT22;35901;48.694;9.476;2023-02-24T01:51:46;7.40;99.90
50013;DHT22;35901;48.694;9.476;2023-02-24T01:54:15;7.40;99.90
50013;DHT22;35901;48.694;9.476;2023-02-24T01:56:42;7.40;99.90
50013;DHT22;35901;48.694;9.476;2023-02-24T01:59:11;7.30;99.90
50013;DHT22;35901;48.694;9.476;2023-02-24T02:01:38;7.30;99.90
50013;DHT22;35901;48.694;9.476;2023-02-24T02:04:20;7.30;99.90
50013;DHT22;35901;48.694;9.476;2023-02-24T02:06:47;7.30;99.90
50013;DHT22;35901;48.694;9.476;2023-02-24T02:09:13;7.30;99.90
50013;DHT22;35901;48.694;9.476;2023-02-24T02:11:43;7.30;99.90
50013;DHT22;35901;48.694;9.476;2023-02-24T02:14:22;7.30;99.90
50013;DHT22;35901;48.694;9.476;2023-02-24T02:17:05;7.30;99.90
50013;DHT22;35901;48.694;9.476;2023-02-24T02:22:32;7.30;99.90
50013;DHT22;35901;48.694;9.476;2023-02-24T02:25:19;7.30;99.90
50013;DHT22;35901;48.694;9.476;2023-02-24T02:31:39;7.30;99.90
50013;DHT22;35901;48.694;9.476;2023-02-24T02:34:00;7.30;99.90
50013;DHT22;35901;48.694;9.476;2023-02-24T02:36:55;7.30;99.90
50013;DHT22;35901;48.694;9.476;2023-02-24T02:42:50;7.20;99.90
50013;DHT22;35901;48.694;9.476;2023-02-24T02:45:09;7.10;99.90
50013;DHT22;35901;48.694;9.476;2023-02-24T02:47:47;7.10;99.90
50013;DHT22;35901;48.694;9.476;2023-02-24T02:50:30;7.10;99.90
50013;DHT22;35901;48.694;9.476;2023-02-24T02:53:03;7.10;99.90
50013;DHT22;35901;48.694;9.476;2023-02-24T02:55:45;7.10;99.90
50013;DHT22;35901;48.694;9.476;2023-02-24T02:58:20;7.20;99.90
50013;DHT22;35901;48.694;9.476;2023-02-24T03:00:52;7.20;99.90
50013;DHT22;35901;48.694;9.476;2023-02-24T03:03:33;7.20;99.90
50013;DHT22;35901;48.694;9.476;2023-02-24T03:06:13;7.20;99.90
50013;DHT22;35901;48.694;9.476;2023-02-24T03:08:46;7.20;99.90
50013;DHT22;35901;48.694;9.476;2023-02-24T03:11:19;7.20;99.90
50013;DHT22;35901;48.694;9.476;2023-02-24T03:13:47;7.20;99.90
50013;DHT22;35901;48.694;9.476;2023-02-24T03:16:17;7.20;99.90
50013;DHT22;35901;48.694;9.476;2023-02-24T03:18:53;7.10;99.90
50013;DHT22;35901;48.694;9.476;2023-02-24T03:21:41;7.00;99.90
50013;DHT22;35901;48.694;9.476;2023-02-24T03:24:09;7.00;99.90
50013;DHT22;35901;48.694;9.476;2023-02-24T03:26:49;7.00;99.90
50013;DHT22;35901;48.694;9.476;2023-02-24T03:30:11;6.90;99.90
50013;DHT22;35901;48.694;9.476;2023-02-24T03:32:56;6.90;99.90
50013;DHT22;35901;48.694;9.476;2023-02-24T03:35:31;6.80;99.90
50013;DHT22;35901;48.694;9.476;2023-02-24T03:38:00;6.90;99.90
50013;DHT22;35901;48.694;9.476;2023-02-24T03:40:27;7.00;99.90
50013;DHT22;35901;48.694;9.476;2023-02-24T03:45:33;7.00;99.90
50013;DHT22;35901;48.694;9.476;2023-02-24T03:48:01;7.10;99.90
50013;DHT22;35901;48.694;9.476;2023-02-24T03:50:28;7.10;99.90
50013;DHT22;35901;48.694;9.476;2023-02-24T03:53:29;7.10;99.90
50013;DHT22;35901;48.694;9.476;2023-02-24T03:56:11;7.10;99.90
50013;DHT22;35901;48.694;9.476;2023-02-24T04:01:55;7.10;99.90
50013;DHT22;35901;48.694;9.476;2023-02-24T04:04:36;7.10;99.90
50013;DHT22;35901;48.694;9.476;2023-02-24T04:12:41;7.20;99.90
50013;DHT22;35901;48.694;9.476;2023-02-24T04:15:25;7.20;99.90
50013;DHT22;35901;48.694;9.476;2023-02-24T04:17:57;7.20;99.90
50013;DHT22;35901;48.694;9.476;2023-02-24T04:20:31;7.20;99.90
50013;DHT22;35901;48.694;9.476;2023-02-24T04:23:10;7.20;99.90
50013;DHT22;35901;48.694;9.476;2023-02-24T04:25:38;7.20;99.90
50013;DHT22;35901;48.694;9.476;2023-02-24T04:28:05;7.20;99.90
50013;DHT22;35901;48.694;9.476;2023-02-24T04:30:40;7.20;99.90
50013;DHT22;35901;48.694;9.476;2023-02-24T04:33:10;7.20;99.90
50013;DHT22;35901;48.694;9.476;2023-02-24T04:35:36;7.20;99.90
50013;DHT22;35901;48.694;9.476;2023-02-24T04:38:03;7.20;99.90
50013;DHT22;35901;48.694;9.476;2023-02-24T04:40:29;7.20;99.90
50013;DHT22;35901;48.694;9.476;2023-02-24T04:42:55;7.20;99.90
50013;DHT22;35901;48.694;9.476;2023-02-24T04:45:23;7.20;99.90
50013;DHT22;35901;48.694;9.476;2023-02-24T04:47:51;7.20;99.90
50013;DHT22;35901;48.694;9.476;2023-02-24T04:50:22;7.20;99.90
50013;DHT22;35901;48.694;9.476;2023-02-24T04:52:49;7.20;99.90
50013;DHT22;35901;48.694;9.476;2023-02-24T04:55:16;7.20;99.90
50013;DHT22;35901;48.694;9.476;2023-02-24T04:57:42;7.20;99.90
50013;DHT22;35901;48.694;9.476;2023-02-24T05:00:12;7.20;99.90
50013;DHT22;35901;48.694;9.476;2023-02-24T05:02:47;7.10;99.90
50013;DHT22;35901;48.694;9.476;2023-02-24T05:05:14;7.10;99.90
50013;DHT22;35901;48.694;9.476;2023-02-24T05:07:40;7.10;99.90
50013;DHT22;35901;48.694;9.476;2023-02-24T05:10:06;7.10;99.90
50013;DHT22;35901;48.694;9.476;2023-02-24T05:12:31;7.10;99.90
50013;DHT22;35901;48.694;9.476;2023-02-24T05:14:57;7.10;99.90
50013;DHT22;35901;48.694;9.476;2023-02-24T05:17:26;7.10;99.90
50013;DHT22;35901;48.694;9.476;2023-02-24T05:19:53;7.10;99.90
50013;DHT22;35901;48.694;9.476;2023-02-24T05:22:37;7.10;99.90
50013;DHT22;35901;48.694;9.476;2023-02-24T05:25:03;7.10;99.90
50013;DHT22;35901;48.694;9.476;2023-02-24T05:27:29;7.10;99.90
50013;DHT22;35901;48.694;9.476;2023-02-24T05:29:54;7.10;99.90
50013;DHT22;35901;48.694;9.476;2023-02-24T05:32:21;7.00;99.90
50013;DHT22;35901;48.694;9.476;2023-02-24T05:34:46;7.10;99.90
50013;DHT22;35901;48.694;9.476;2023-02-24T05:37:12;7.10;99.90
50013;DHT22;35901;48.694;9.476;2023-02-24T05:39:41;7.10;99.90
50013;DHT22;35901;48.694;9.476;2023-02-24T05:42:07;7.10;99.90
50013;DHT22;35901;48.694;9.476;2023-02-24T05:44:33;7.10;99.90
50013;DHT22;35901;48.694;9.476;2023-02-24T05:47:00;7.00;99.90
50013;DHT22;35901;48.694;9.476;2023-02-24T05:49:31;7.10;99.90
50013;DHT22;35901;48.694;9.476;2023-02-24T05:52:00;7.00;99.90
50013;DHT22;35901;48.694;9.476;2023-02-24T05:54:35;7.00;99.90
50013;DHT22;35901;48.694;9.476;2023-02-24T05:57:27;7.00;99.90
50013;DHT22;35901;48.694;9.476;2023-02-24T05:59:57;7.00;99.90
50013;DHT22;35901;48.694;9.476;2023-02-24T06:02:23;7.00;99.90
50013;DHT22;35901;48.694;9.476;2023-02-24T06:04:52;7.00;99.90
50013;DHT22;35901;48.694;9.476;2023-02-24T06:07:23;7.00;99.90
50013;DHT22;35901;48.694;9.476;2023-02-24T06:09:54;7.00;99.90
50013;DHT22;35901;48.694;9.476;2023-02-24T06:12:24;7.00;99.90
50013;DHT22;35901;48.694;9.476;2023-02-24T06:14:50;7.00;99.90
50013;DHT22;35901;48.694;9.476;2023-02-24T06:17:17;7.00;99.90
50013;DHT22;35901;48.694;9.476;2023-02-24T06:19:48;7.10;99.90
50013;DHT22;35901;48.694;9.476;2023-02-24T06:22:16;7.00;99.90
50013;DHT22;35901;48.694;9.476;2023-02-24T06:24:44;7.00;99.90
50013;DHT22;35901;48.694;9.476;2023-02-24T06:27:11;7.00;99.90
50013;DHT22;35901;48.694;9.476;2023-02-24T06:29:46;7.00;99.90
50013;DHT22;35901;48.694;9.476;2023-02-24T06:32:14;7.00;99.90
50013;DHT22;35901;48.694;9.476;2023-02-24T06:34:40;7.00;99.90
50013;DHT22;35901;48.694;9.476;2023-02-24T06:37:08;7.10;99.90
50013;DHT22;35901;48.694;9.476;2023-02-24T06:39:35;7.10;99.90
50013;DHT22;35901;48.694;9.476;2023-02-24T06:42:01;7.10;99.90
50013;DHT22;35901;48.694;9.476;2023-02-24T06:44:30;7.10;99.90
50013;DHT22;35901;48.694;9.476;2023-02-24T06:46:56;7.10;99.90
50013;DHT22;35901;48.694;9.476;2023-02-24T06:49:23;7.10;99.90
50013;DHT22;35901;48.694;9.476;2023-02-24T06:51:49;7.20;99.90
50013;DHT22;35901;48.694;9.476;2023-02-24T06:54:15;7.10;99.90
50013;DHT22;35901;48.694;9.476;2023-02-24T06:56:41;7.20;99.90
50013;DHT22;35901;48.694;9.476;2023-02-24T06:59:07;7.20;99.90
50013;DHT22;35901;48.694;9.476;2023-02-24T07:01:37;7.20;99.90
50013;DHT22;35901;48.694;9.476;2023-02-24T07:04:10;7.20;99.90
50013;DHT22;35901;48.694;9.476;2023-02-24T07:06:38;7.20;99.90
50013;DHT22;35901;48.694;9.476;2023-02-24T07:09:12;7.20;99.90
50013;DHT22;35901;48.694;9.476;2023-02-24T07:11:40;7.20;99.90
50013;DHT22;35901;48.694;9.476;2023-02-24T07:14:06;7.20;99.90
50013;DHT22;35901;48.694;9.476;2023-02-24T07:16:33;7.20;99.90
50013;DHT22;35901;48.694;9.476;2023-02-24T07:19:02;7.20;99.90
50013;DHT22;35901;48.694;9.476;2023-02-24T07:21:29;7.20;99.90
50013;DHT22;35901;48.694;9.476;2023-02-24T07:24:07;7.30;99.90
50013;DHT22;35901;48.694;9.476;2023-02-24T07:26:33;7.30;99.90
50013;DHT22;35901;48.694;9.476;2023-02-24T07:28:59;7.30;99.90
50013;DHT22;35901;48.694;9.476;2023-02-24T07:31:29;7.30;99.90
50013;DHT22;35901;48.694;9.476;2023-02-24T07:33:57;7.30;99.90
50013;DHT22;35901;48.694;9.476;2023-02-24T07:36:25;7.30;99.90
50013;DHT22;35901;48.694;9.476;2023-02-24T07:38:55;7.30;99.90
50013;DHT22;35901;48.694;9.476;2023-02-24T07:41:23;7.40;99.90
50013;DHT22;35901;48.694;9.476;2023-02-24T07:43:51;7.40;99.90
50013;DHT22;35901;48.694;9.476;2023-02-24T07:46:23;7.40;99.90
50013;DHT22;35901;48.694;9.476;2023-02-24T07:48:51;7.40;99.90
50013;DHT22;35901;48.694;9.476;2023-02-24T07:51:19;7.40;99.90
50013;DHT22;35901;48.694;9.476;2023-02-24T07:53:52;7.40;99.90
50013;DHT22;35901;48.694;9.476;2023-02-24T07:56:19;7.40;99.90
50013;DHT22;35901;48.694;9.476;2023-02-24T07:58:52;7.40;99.90
50013;DHT22;35901;48.694;9.476;2023-02-24T08:01:27;7.50;99.90
50013;DHT22;35901;48.694;9.476;2023-02-24T08:03:59;7.50;99.90
50013;DHT22;35901;48.694;9.476;2023-02-24T08:06:34;7.50;99.90
50013;DHT22;35901;48.694;9.476;2023-02-24T08:09:05;7.60;99.90
50013;DHT22;35901;48.694;9.476;2023-02-24T08:11:51;7.60;99.90
50013;DHT22;35901;48.694;9.476;2023-02-24T08:16:52;7.60;99.90
50013;DHT22;35901;48.694;9.476;2023-02-24T08:19:28;7.60;99.90
50013;DHT22;35901;48.694;9.476;2023-02-24T08:22:08;7.50;99.90
50013;DHT22;35901;48.694;9.476;2023-02-24T08:24:55;7.50;99.90
50013;DHT22;35901;48.694;9.476;2023-02-24T08:27:27;7.50;99.90
50013;DHT22;35901;48.694;9.476;2023-02-24T08:29:57;7.50;99.90
50013;DHT22;35901;48.694;9.476;2023-02-24T08:34:51;7.50;99.90
50013;DHT22;35901;48.694;9.476;2023-02-24T08:37:23;7.50;99.90
50013;DHT22;35901;48.694;9.476;2023-02-24T08:39:49;7.50;99.90
50013;DHT22;35901;48.694;9.476;2023-02-24T08:42:19;7.60;99.90
50013;DHT22;35901;48.694;9.476;2023-02-24T08:44:45;7.60;99.90
50013;DHT22;35901;48.694;9.476;2023-02-24T08:47:14;7.60;99.90
50013;DHT22;35901;48.694;9.476;2023-02-24T08:49:45;7.60;99.90
50013;DHT22;35901;48.694;9.476;2023-02-24T08:52:14;7.60;99.90
50013;DHT22;35901;48.694;9.476;2023-02-24T08:54:41;7.70;99.90
50013;DHT22;35901;48.694;9.476;2023-02-24T08:57:13;7.70;99.90
50013;DHT22;35901;48.694;9.476;2023-02-24T08:59:42;7.70;99.90
50013;DHT22;35901;48.694;9.476;2023-02-24T09:02:19;7.80;99.90
50013;DHT22;35901;48.694;9.476;2023-02-24T09:04:57;7.80;99.90
50013;DHT22;35901;48.694;9.476;2023-02-24T09:07:29;7.80;99.90
50013;DHT22;35901;48.694;9.476;2023-02-24T09:10:00;7.90;99.90
50013;DHT22;35901;48.694;9.476;2023-02-24T09:12:28;7.90;99.90
50013;DHT22;35901;48.694;9.476;2023-02-24T09:14:57;8.00;99.90
50013;DHT22;35901;48.694;9.476;2023-02-24T09:17:27;8.10;99.90
50013;DHT22;35901;48.694;9.476;2023-02-24T09:20:23;8.10;99.90
50013;DHT22;35901;48.694;9.476;2023-02-24T09:22:53;8.10;99.90
50013;DHT22;35901;48.694;9.476;2023-02-24T09:25:24;8.00;99.90
50013;DHT22;35901;48.694;9.476;2023-02-24T09:28:04;7.90;99.90
50013;DHT22;35901;48.694;9.476;2023-02-24T09:30:39;7.90;99.90
50013;DHT22;35901;48.694;9.476;2023-02-24T09:35:52;7.90;99.90
50013;DHT22;35901;48.694;9.476;2023-02-24T09:38:21;8.00;99.90
50013;DHT22;35901;48.694;9.476;2023-02-24T09:41:19;8.10;99.90
50013;DHT22;35901;48.694;9.476;2023-02-24T09:43:54;8.10;99.90
50013;DHT22;35901;48.694;9.476;2023-02-24T09:46:24;8.30;99.90
50013;DHT22;35901;48.694;9.476;2023-02-24T09:48:55;8.40;99.90
50013;DHT22;35901;48.694;9.476;2023-02-24T09:51:30;8.50;99.90
50013;DHT22;35901;48.694;9.476;2023-02-24T09:54:19;8.80;99.90
50013;DHT22;35901;48.694;9.476;2023-02-24T09:56:56;8.90;99.90
50013;DHT22;35901;48.694;9.476;2023-02-24T09:59:48;9.10;99.90
50013;DHT22;35901;48.694;9.476;2023-02-24T10:02:42;9.20;99.90
50013;DHT22;35901;48.694;9.476;2023-02-24T10:05:22;9.30;99.90
50013;DHT22;35901;48.694;9.476;2023-02-24T10:07:52;9.30;99.90
50013;DHT22;35901;48.694;9.476;2023-02-24T10:10:29;9.40;99.90
50013;DHT22;35901;48.694;9.476;2023-02-24T10:13:21;9.40;99.90
50013;DHT22;35901;48.694;9.476;2023-02-24T10:15:57;9.30;99.90
50013;DHT22;35901;48.694;9.476;2023-02-24T10:19:41;9.20;99.90
50013;DHT22;35901;48.694;9.476;2023-02-24T10:21:55;9.20;99.90
50013;DHT22;35901;48.694;9.476;2023-02-24T10:24:48;9.30;99.90
50013;DHT22;35901;48.694;9.476;2023-02-24T10:33:23;9.10;99.90
50013;DHT22;35901;48.694;9.476;2023-02-24T10:36:02;9.00;99.90
50013;DHT22;35901;48.694;9.476;2023-02-24T10:38:28;9.00;99.90
50013;DHT22;35901;48.694;9.476;2023-02-24T10:40:54;9.10;99.90
50013;DHT22;35901;48.694;9.476;2023-02-24T10:43:25;9.10;99.90
50013;DHT22;35901;48.694;9.476;2023-02-24T10:45:57;9.20;99.90
50013;DHT22;35901;48.694;9.476;2023-02-24T10:48:38;9.30;99.90
50013;DHT22;35901;48.694;9.476;2023-02-24T10:51:13;9.30;99.90
50013;DHT22;35901;48.694;9.476;2023-02-24T10:53:46;9.30;99.90
50013;DHT22;35901;48.694;9.476;2023-02-24T10:56:20;9.30;99.90
50013;DHT22;35901;48.694;9.476;2023-02-24T10:59:17;9.20;99.90
50013;DHT22;35901;48.694;9.476;2023-02-24T11:02:00;9.20;99.90
50013;DHT22;35901;48.694;9.476;2023-02-24T11:04:37;9.20;99.90
50013;DHT22;35901;48.694;9.476;2023-02-24T11:07:29;9.30;99.90
50013;DHT22;35901;48.694;9.476;2023-02-24T11:12:43;9.30;99.90
50013;DHT22;35901;48.694;9.476;2023-02-24T11:15:35;9.30;99.90
50013;DHT22;35901;48.694;9.476;2023-02-24T11:18:25;9.20;99.90
50013;DHT22;35901;48.694;9.476;2023-02-24T11:20:54;9.10;99.90
50013;DHT22;35901;48.694;9.476;2023-02-24T11:23:34;9.10;99.90
50013;DHT22;35901;48.694;9.476;2023-02-24T11:26:39;9.10;99.90
50013;DHT22;35901;48.694;9.476;2023-02-24T11:43:18;9.00;99.90
50013;DHT22;35901;48.694;9.476;2023-02-24T11:48:35;8.80;99.90
50013;DHT22;35901;48.694;9.476;2023-02-24T11:51:04;8.80;99.90
50013;DHT22;35901;48.694;9.476;2023-02-24T11:53:50;8.70;99.90
50013;DHT22;35901;48.694;9.476;2023-02-24T11:56:30;8.80;99.90
50013;DHT22;35901;48.694;9.476;2023-02-24T12:04:51;8.80;99.90
50013;DHT22;35901;48.694;9.476;2023-02-24T12:07:47;8.80;99.90
50013;DHT22;35901;48.694;9.476;2023-02-24T12:10:26;8.80;99.90
50013;DHT22;35901;48.694;9.476;2023-02-24T12:15:47;8.70;99.90
50013;DHT22;35901;48.694;9.476;2023-02-24T12:18:23;8.80;99.90
50013;DHT22;35901;48.694;9.476;2023-02-24T12:23:41;9.00;99.90
50013;DHT22;35901;48.694;9.476;2023-02-24T12:37:57;9.80;99.90
50013;DHT22;35901;48.694;9.476;2023-02-24T12:45:55;9.60;99.90
50013;DHT22;35901;48.694;9.476;2023-02-24T12:51:11;9.90;99.90
50013;DHT22;35901;48.694;9.476;2023-02-24T12:58:43;10.10;99.90
50013;DHT22;35901;48.694;9.476;2023-02-24T13:01:29;10.20;99.90
50013;DHT22;35901;48.694;9.476;2023-02-24T13:04:20;10.30;99.90
50013;DHT22;35901;48.694;9.476;2023-02-24T13:12:50;10.70;99.90
50013;DHT22;35901;48.694;9.476;2023-02-24T13:15:22;10.70;99.90
50013;DHT22;35901;48.694;9.476;2023-02-24T13:17:51;10.40;99.90
50013;DHT22;35901;48.694;9.476;2023-02-24T13:20:33;10.30;99.90
50013;DHT22;35901;48.694;9.476;2023-02-24T13:23:01;10.20;99.90
50013;DHT22;35901;48.694;9.476;2023-02-24T13:25:37;10.00;99.90
50013;DHT22;35901;48.694;9.476;2023-02-24T13:28:05;9.90;99.90
50013;DHT22;35901;48.694;9.476;2023-02-24T13:30:45;9.80;99.90
50013;DHT22;35901;48.694;9.476;2023-02-24T13:35:47;9.70;99.90
50013;DHT22;35901;48.694;9.476;2023-02-24T13:49:42;9.90;99.90
50013;DHT22;35901;48.694;9.476;2023-02-24T13:52:29;9.90;99.90
50013;DHT22;35901;48.694;9.476;2023-02-24T13:57:55;9.80;99.90
50013;DHT22;35901;48.694;9.476;2023-02-24T14:00:50;9.70;99.90
50013;DHT22;35901;48.694;9.476;2023-02-24T14:03:20;9.70;99.90
50013;DHT22;35901;48.694;9.476;2023-02-24T14:05:47;9.70;99.90
50013;DHT22;35901;48.694;9.476;2023-02-24T14:08:28;9.70;99.90
50013;DHT22;35901;48.694;9.476;2023-02-24T14:10:56;9.70;99.90
50013;DHT22;35901;48.694;9.476;2023-02-24T14:13:26;9.70;99.90
50013;DHT22;35901;48.694;9.476;2023-02-24T14:15:55;9.70;99.90
50013;DHT22;35901;48.694;9.476;2023-02-24T14:18:26;9.70;99.90
50013;DHT22;35901;48.694;9.476;2023-02-24T14:20:54;9.70;99.90
50013;DHT22;35901;48.694;9.476;2023-02-24T14:26:05;9.70;99.90
50013;DHT22;35901;48.694;9.476;2023-02-24T14:28:35;9.70;99.90
50013;DHT22;35901;48.694;9.476;2023-02-24T14:31:08;9.70;99.90
50013;DHT22;35901;48.694;9.476;2023-02-24T14:33:36;9.80;99.90
50013;DHT22;35901;48.694;9.476;2023-02-24T14:36:04;9.80;99.90
50013;DHT22;35901;48.694;9.476;2023-02-24T14:40:56;9.80;99.90
50013;DHT22;35901;48.694;9.476;2023-02-24T14:43:22;9.70;99.90
50013;DHT22;35901;48.694;9.476;2023-02-24T14:45:50;9.70;99.90
50013;DHT22;35901;48.694;9.476;2023-02-24T14:48:26;9.70;99.90
50013;DHT22;35901;48.694;9.476;2023-02-24T14:51:13;9.60;99.90
50013;DHT22;35901;48.694;9.476;2023-02-24T14:53:55;9.60;99.90
50013;DHT22;35901;48.694;9.476;2023-02-24T14:56:27;9.50;99.90
50013;DHT22;35901;48.694;9.476;2023-02-24T15:01:37;9.50;99.90
50013;DHT22;35901;48.694;9.476;2023-02-24T15:04:24;9.40;99.90
50013;DHT22;35901;48.694;9.476;2023-02-24T15:06:51;9.40;99.90
50013;DHT22;35901;48.694;9.476;2023-02-24T15:09:22;9.40;99.90
50013;DHT22;35901;48.694;9.476;2023-02-24T15:11:51;9.40;99.90
50013;DHT22;35901;48.694;9.476;2023-02-24T15:14:23;9.30;99.90
50013;DHT22;35901;48.694;9.476;2023-02-24T15:16:53;9.20;99.90
50013;DHT22;35901;48.694;9.476;2023-02-24T15:19:35;9.10;99.90
50013;DHT22;35901;48.694;9.476;2023-02-24T15:22:03;9.00;99.90
50013;DHT22;35901;48.694;9.476;2023-02-24T15:24:33;9.00;99.90
50013;DHT22;35901;48.694;9.476;2023-02-24T15:29:41;8.80;99.90
50013;DHT22;35901;48.694;9.476;2023-02-24T15:32:15;8.70;99.90
50013;DHT22;35901;48.694;9.476;2023-02-24T15:34:44;8.60;99.90
50013;DHT22;35901;48.694;9.476;2023-02-24T15:37:19;8.60;99.90
50013;DHT22;35901;48.694;9.476;2023-02-24T15:39:47;8.50;99.90
50013;DHT22;35901;48.694;9.476;2023-02-24T15:42:19;8.50;99.90
50013;DHT22;35901;48.694;9.476;2023-02-24T15:44:54;8.50;99.90
50013;DHT22;35901;48.694;9.476;2023-02-24T15:47:23;8.50;99.90
50013;DHT22;35901;48.694;9.476;2023-02-24T15:49:49;8.50;99.90
50013;DHT22;35901;48.694;9.476;2023-02-24T15:52:23;8.40;99.90
50013;DHT22;35901;48.694;9.476;2023-02-24T15:54:50;8.40;99.90
50013;DHT22;35901;48.694;9.476;2023-02-24T15:57:16;8.40;99.90
50013;DHT22;35901;48.694;9.476;2023-02-24T15:59:43;8.40;99.90
50013;DHT22;35901;48.694;9.476;2023-02-24T16:02:18;8.40;99.90
50013;DHT22;35901;48.694;9.476;2023-02-24T16:04:45;8.40;99.90
50013;DHT22;35901;48.694;9.476;2023-02-24T16:07:31;8.30;99.90
50013;DHT22;35901;48.694;9.476;2023-02-24T16:09:59;8.30;99.90
50013;DHT22;35901;48.694;9.476;2023-02-24T16:12:28;8.30;99.90
50013;DHT22;35901;48.694;9.476;2023-02-24T16:14:59;8.30;99.90
50013;DHT22;35901;48.694;9.476;2023-02-24T16:17:34;8.30;99.90
50013;DHT22;35901;48.694;9.476;2023-02-24T16:20:01;8.30;99.90
50013;DHT22;35901;48.694;9.476;2023-02-24T16:22:27;8.20;99.90
50013;DHT22;35901;48.694;9.476;2023-02-24T16:24:53;8.20;99.90
50013;DHT22;35901;48.694;9.476;2023-02-24T16:27:21;8.10;99.90
50013;DHT22;35901;48.694;9.476;2023-02-24T16:29:48;8.00;99.90
50013;DHT22;35901;48.694;9.476;2023-02-24T16:32:17;8.00;99.90
50013;DHT22;35901;48.694;9.476;2023-02-24T16:34:46;7.90;99.90
50013;DHT22;35901;48.694;9.476;2023-02-24T16:37:25;7.90;99.90
50013;DHT22;35901;48.694;9.476;2023-02-24T16:39:51;7.80;99.90
50013;DHT22;35901;48.694;9.476;2023-02-24T16:42:17;7.70;99.90
50013;DHT22;35901;48.694;9.476;2023-02-24T16:44:44;7.70;99.90
50013;DHT22;35901;48.694;9.476;2023-02-24T16:47:16;7.60;99.90
50013;DHT22;35901;48.694;9.476;2023-02-24T16:49:42;7.60;99.90
50013;DHT22;35901;48.694;9.476;2023-02-24T16:52:10;7.50;99.90
50013;DHT22;35901;48.694;9.476;2023-02-24T16:54:36;7.50;99.90
50013;DHT22;35901;48.694;9.476;2023-02-24T16:57:02;7.50;99.90
50013;DHT22;35901;48.694;9.476;2023-02-24T16:59:28;7.50;99.90
50013;DHT22;35901;48.694;9.476;2023-02-24T17:01:54;7.50;99.90
50013;DHT22;35901;48.694;9.476;2023-02-24T17:04:21;7.50;99.90
50013;DHT22;35901;48.694;9.476;2023-02-24T17:06:49;7.40;99.90
50013;DHT22;35901;48.694;9.476;2023-02-24T17:09:15;7.40;99.90
50013;DHT22;35901;48.694;9.476;2023-02-24T17:11:43;7.40;99.90
50013;DHT22;35901;48.694;9.476;2023-02-24T17:14:19;7.30;99.90
50013;DHT22;35901;48.694;9.476;2023-02-24T17:16:45;7.30;99.90
50013;DHT22;35901;48.694;9.476;2023-02-24T17:19:12;7.30;99.90
50013;DHT22;35901;48.694;9.476;2023-02-24T17:21:41;7.30;99.90
50013;DHT22;35901;48.694;9.476;2023-02-24T17:24:16;7.30;99.90
50013;DHT22;35901;48.694;9.476;2023-02-24T17:26:42;7.30;99.90
50013;DHT22;35901;48.694;9.476;2023-02-24T17:29:09;7.30;99.90
50013;DHT22;35901;48.694;9.476;2023-02-24T17:31:34;7.30;99.90
50013;DHT22;35901;48.694;9.476;2023-02-24T17:34:00;7.30;99.90
50013;DHT22;35901;48.694;9.476;2023-02-24T17:36:27;7.30;99.90
50013;DHT22;35901;48.694;9.476;2023-02-24T17:38:52;7.30;99.90
50013;DHT22;35901;48.694;9.476;2023-02-24T17:41:24;7.30;99.90
50013;DHT22;35901;48.694;9.476;2023-02-24T17:43:50;7.20;99.90
50013;DHT22;35901;48.694;9.476;2023-02-24T17:46:16;7.20;99.90
50013;DHT22;35901;48.694;9.476;2023-02-24T17:48:42;7.20;99.90
50013;DHT22;35901;48.694;9.476;2023-02-24T17:51:12;7.20;99.90
50013;DHT22;35901;48.694;9.476;2023-02-24T17:53:38;7.20;99.90
50013;DHT22;35901;48.694;9.476;2023-02-24T17:56:05;7.20;99.90
50013;DHT22;35901;48.694;9.476;2023-02-24T17:58:31;7.30;99.90
50013;DHT22;35901;48.694;9.476;2023-02-24T18:00:57;7.30;99.90
50013;DHT22;35901;48.694;9.476;2023-02-24T18:03:23;7.30;99.90
50013;DHT22;35901;48.694;9.476;2023-02-24T18:06:04;7.30;99.90
50013;DHT22;35901;48.694;9.476;2023-02-24T18:08:34;7.30;99.90
50013;DHT22;35901;48.694;9.476;2023-02-24T18:11:01;7.30;99.90
50013;DHT22;35901;48.694;9.476;2023-02-24T18:13:28;7.30;99.90
50013;DHT22;35901;48.694;9.476;2023-02-24T18:15:54;7.20;99.90
50013;DHT22;35901;48.694;9.476;2023-02-24T18:18:20;7.20;99.90
50013;DHT22;35901;48.694;9.476;2023-02-24T18:20:46;7.10;99.90